Time;durP1;ratioP1;P1;durP2;ratioP2;P2;SDS_P1;SDS_P2;PMS_P1;PMS_P2;Temp;Humidity;BMP_temperature;BMP_pressure;BME280_temperature;BME280_humidity;BME280_pressure;Samples;Min_cycle;Max_cycle;Signal;HPM_P1;HPM_P2
2022/05/18 00:01:32;;;;;;;;;;;;;;;;;;5062030;28;20922;-67
2022/05/18 00:03:58;;;;;;;19.85;10.10;;;;;;;;;;5069817;28;19973;-68
2022/05/18 00:06:24;;;;;;;21.38;10.52;;;;;;;;;;5068845;28;20063;-68
2022/05/18 00:08:50;;;;;;;;;;;;;;;;;;5066995;28;20045;-68
2022/05/18 00:11:18;;;;;;;19.17;10.57;;;;;;;;;;5073061;28;20331;-70
2022/05/18 00:13:45;;;;;;;20.60;10.13;;;;;;;;;;5089773;28;20433;-68
2022/05/18 00:16:12;;;;;;;22.98;10.65;;;;;;;;;;5071225;28;20044;-68
2022/05/18 00:18:38;;;;;;;18.73;10.70;;;;;;;;;;5089197;28;20058;-69
2022/05/18 00:21:04;;;;;;;;;;;;;;;;;;5050257;28;20121;-67
2022/05/18 00:23:30;;;;;;;21.27;11.00;;;;;;;;;;5085580;28;20040;-68
2022/05/18 00:25:56;;;;;;;21.30;10.68;;;;;;;;;;5089425;28;20063;-67
2022/05/18 00:28:23;;;;;;;23.23;10.02;;;;;;;;;;5055743;28;20377;-67
2022/05/18 00:30:49;;;;;;;18.20;10.35;;;;;;;;;;5049264;28;20396;-68
2022/05/18 00:33:15;;;;;;;;;;;;;;;;;;5078464;28;20069;-71
2022/05/18 00:35:41;;;;;;;18.10;9.80;;;;;;;;;;5089340;28;20007;-68
2022/05/18 00:38:08;;;;;;;17.88;9.48;;;;;;;;;;5072974;28;20463;-68
2022/05/18 00:40:35;;;;;;;18.92;9.05;;;;;;;;;;5052965;28;20053;-69
2022/05/18 00:43:01;;;;;;;17.25;9.10;;;;;;;;;;5068419;28;20155;-68
2022/05/18 00:45:27;;;;;;;;;;;;;;;;;;5088978;28;20111;-67
2022/05/18 00:47:53;;;;;;;17.60;8.88;;;;;;;;;;5062205;28;19959;-67
2022/05/18 00:50:25;;;;;;;21.05;9.00;;;;;;;;;;5050391;28;20055;-69
2022/05/18 00:53:11;;;;;;;16.73;8.48;;;;;;;;;;5087341;28;20044;-67
2022/05/18 00:55:42;;;;;;;15.45;8.18;;;;;;;;;;5088683;28;20366;-67
2022/05/18 00:58:22;;;;;;;16.98;8.98;;;;;;;;;;5082287;28;20098;-68
2022/05/18 01:00:51;;;;;;;16.10;8.52;;;;;;;;;;5057120;28;20080;-68
2022/05/18 01:03:19;;;;;;;21.08;8.32;;;;;;;;;;5067363;28;20062;-68
2022/05/18 01:05:49;;;;;;;20.85;8.15;;;;;;;;;;5068233;28;20041;-68
2022/05/18 01:08:17;;;;;;;17.73;8.30;;;;;;;;;;5067724;28;20068;-67
2022/05/18 01:10:43;;;;;;;16.75;8.27;;;;;;;;;;5047942;28;20088;-67
2022/05/18 01:13:09;;;;;;;17.77;8.32;;;;;;;;;;5036909;28;20409;-67
2022/05/18 01:15:35;;;;;;;17.45;8.15;;;;;;;;;;5085702;28;20095;-68
2022/05/18 01:18:01;;;;;;;;;;;;;;;;;;5068690;28;20146;-68
2022/05/18 01:20:30;;;;;;;15.80;8.15;;;;;;;;;;5056866;28;19921;-68
2022/05/18 01:22:57;;;;;;;18.40;7.82;;;;;;;;;;5049475;28;20407;-68
2022/05/18 01:25:41;;;;;;;15.27;8.25;;;;;;;;;;5069021;28;20040;-68
2022/05/18 01:28:08;;;;;;;16.00;8.68;;;;;;;;;;5053720;28;20151;-68
2022/05/18 01:30:35;;;;;;;17.20;8.77;;;;;;;;;;5067719;28;20052;-67
2022/05/18 01:33:04;;;;;;;15.48;8.80;;;;;;;;;;5068317;28;20050;-67
2022/05/18 01:35:31;;;;;;;17.48;9.30;;;;;;;;;;5064795;28;20416;-67
2022/05/18 01:37:59;;;;;;;18.50;9.05;;;;;;;;;;5071389;28;20118;-67
2022/05/18 01:40:43;;;;;;;15.95;8.77;;;;;;;;;;5074872;28;20048;-68
2022/05/18 01:43:21;;;;;;;18.23;8.38;;;;;;;;;;5073741;28;20040;-68
2022/05/18 01:45:55;;;;;;;16.30;8.90;;;;;;;;;;5067622;28;20040;-67
2022/05/18 01:48:23;;;;;;;17.00;8.65;;;;;;;;;;5061446;28;20489;-68
2022/05/18 01:50:50;;;;;;;17.63;8.30;;;;;;;;;;5059936;28;20372;-67
2022/05/18 01:53:16;;;;;;;15.15;8.25;;;;;;;;;;5068325;28;20045;-67
2022/05/18 01:55:43;;;;;;;17.88;8.18;;;;;;;;;;5061956;28;20114;-67
2022/05/18 01:58:10;;;;;;;17.92;8.13;;;;;;;;;;5045077;28;20139;-67
2022/05/18 02:00:37;;;;;;;17.23;8.02;;;;;;;;;;5057792;28;20075;-67
2022/05/18 02:03:03;;;;;;;15.73;7.80;;;;;;;;;;5068193;28;20124;-68
2022/05/18 02:05:29;;;;;;;14.85;7.97;;;;;;;;;;5065262;28;20444;-67
2022/05/18 02:07:57;;;;;;;15.18;8.05;;;;;;;;;;5029722;28;20182;-67
2022/05/18 02:10:23;;;;;;;18.20;7.97;;;;;;;;;;5050233;28;20128;-67
2022/05/18 02:12:49;;;;;;;17.35;8.18;;;;;;;;;;5085226;28;20656;-67
2022/05/18 02:15:15;;;;;;;19.15;8.30;;;;;;;;;;5072682;28;20500;-67
2022/05/18 02:17:43;;;;;;;16.23;8.27;;;;;;;;;;5051331;28;20489;-66
2022/05/18 02:20:10;;;;;;;16.25;7.88;;;;;;;;;;5081771;28;20048;-67
2022/05/18 02:22:36;;;;;;;16.42;8.18;;;;;;;;;;5070726;28;20043;-67
2022/05/18 02:25:03;;;;;;;17.13;8.15;;;;;;;;;;5067921;28;20123;-67
2022/05/18 02:27:29;;;;;;;14.35;8.32;;;;;;;;;;5065107;28;20044;-67
2022/05/18 02:29:55;;;;;;;21.85;8.30;;;;;;;;;;5070478;28;20045;-67
2022/05/18 02:32:22;;;;;;;19.15;8.68;;;;;;;;;;5077389;28;20091;-67
2022/05/18 02:34:48;;;;;;;15.27;8.18;;;;;;;;;;5091356;28;20056;-67
2022/05/18 02:37:14;;;;;;;15.75;8.15;;;;;;;;;;5085213;28;20157;-67
2022/05/18 02:39:40;;;;;;;;;;;;;;;;;;5057152;28;20060;-66
2022/05/18 02:42:06;;;;;;;17.08;8.82;;;;;;;;;;5079027;28;19943;-67
2022/05/18 02:44:32;;;;;;;;;;;;;;;;;;5071468;28;20129;-67
2022/05/18 02:46:59;;;;;;;20.35;9.07;;;;;;;;;;5070943;28;19992;-67
2022/05/18 02:49:25;;;;;;;15.27;8.15;;;;;;;;;;5053015;28;20059;-66
2022/05/18 02:51:52;;;;;;;19.42;8.90;;;;;;;;;;5065293;28;20120;-67
2022/05/18 02:57:04;;;;;;;20.07;9.20;;;;;;;;;;5073322;28;20422;-67
2022/05/18 02:59:31;;;;;;;18.50;8.98;;;;;;;;;;5049676;28;20037;-67
2022/05/18 03:01:57;;;;;;;;;;;;;;;;;;5086313;28;20134;-67
2022/05/18 03:04:23;;;;;;;19.30;8.50;;;;;;;;;;5091205;28;20297;-67
2022/05/18 03:06:49;;;;;;;16.45;8.35;;;;;;;;;;5072037;28;20056;-67
2022/05/18 03:09:15;;;;;;;17.00;9.02;;;;;;;;;;5072488;28;20076;-67
2022/05/18 03:11:41;;;;;;;;;;;;;;;;;;5054052;28;20055;-67
2022/05/18 03:14:08;;;;;;;14.52;8.15;;;;;;;;;;5066401;28;19927;-66
2022/05/18 03:16:34;;;;;;;17.02;8.90;;;;;;;;;;5071299;28;20040;-67
2022/05/18 03:19:00;;;;;;;;;;;;;;;;;;5051539;28;20104;-67
2022/05/18 03:24:11;;;;;;;21.55;8.80;;;;;;;;;;5089730;28;20144;-66
2022/05/18 03:26:37;;;;;;;18.92;9.00;;;;;;;;;;5087404;28;20127;-67
2022/05/18 03:29:03;;;;;;;15.60;8.90;;;;;;;;;;5070102;28;20120;-66
2022/05/18 03:31:30;;;;;;;15.15;8.52;;;;;;;;;;5062346;28;20491;-67
2022/05/18 03:33:56;;;;;;;;;;;;;;;;;;5050859;28;20422;-68
2022/05/18 03:36:23;;;;;;;15.70;8.60;;;;;;;;;;5058802;28;20020;-66
2022/05/18 03:38:49;;;;;;;15.80;9.20;;;;;;;;;;5068430;28;20066;-67
2022/05/18 03:41:19;;;;;;;18.45;8.70;;;;;;;;;;5068328;28;20041;-67
2022/05/18 03:43:45;;;;;;;17.98;9.30;;;;;;;;;;5067601;28;20048;-67
2022/05/18 03:46:12;;;;;;;17.60;9.45;;;;;;;;;;5068968;28;20124;-66
2022/05/18 03:48:38;;;;;;;16.80;8.70;;;;;;;;;;5065552;28;20106;-67
2022/05/18 03:51:05;;;;;;;19.45;9.85;;;;;;;;;;5067245;28;20044;-68
2022/05/18 03:53:32;;;;;;;16.13;9.13;;;;;;;;;;5068614;28;20044;-67
2022/05/18 03:55:58;;;;;;;16.05;9.07;;;;;;;;;;5068095;28;20131;-67
2022/05/18 03:58:24;;;;;;;16.10;8.93;;;;;;;;;;5063749;28;20049;-67
2022/05/18 04:00:51;;;;;;;16.63;9.52;;;;;;;;;;5080951;28;20055;-67
2022/05/18 04:03:18;;;;;;;21.33;9.23;;;;;;;;;;5069966;28;20044;-67
2022/05/18 04:05:45;;;;;;;17.95;9.68;;;;;;;;;;5087967;28;20337;-66
2022/05/18 04:08:11;;;;;;;17.35;9.00;;;;;;;;;;5088112;28;20063;-67
2022/05/18 04:10:38;;;;;;;18.25;9.05;;;;;;;;;;5062311;28;20075;-67
2022/05/18 04:13:05;;;;;;;18.30;9.65;;;;;;;;;;5088066;28;20051;-67
2022/05/18 04:15:31;;;;;;;15.95;9.02;;;;;;;;;;5085954;28;20055;-67
2022/05/18 04:17:59;;;;;;;18.52;9.68;;;;;;;;;;5069218;28;20424;-67
2022/05/18 04:20:25;;;;;;;18.27;10.30;;;;;;;;;;5071665;28;20117;-67
2022/05/18 04:22:52;;;;;;;16.88;9.77;;;;;;;;;;5084342;28;20103;-67
2022/05/18 04:25:19;;;;;;;17.92;9.88;;;;;;;;;;5067472;28;20129;-67
2022/05/18 04:27:47;;;;;;;18.58;9.60;;;;;;;;;;5056174;28;20116;-67
2022/05/18 04:30:14;;;;;;;17.38;9.60;;;;;;;;;;5063751;28;20119;-67
2022/05/18 04:32:40;;;;;;;20.15;10.00;;;;;;;;;;5067364;28;20066;-67
2022/05/18 04:35:08;;;;;;;20.00;9.75;;;;;;;;;;5048925;28;20063;-67
2022/05/18 04:37:34;;;;;;;17.40;9.32;;;;;;;;;;5066193;28;20075;-67
2022/05/18 04:40:00;;;;;;;18.33;10.20;;;;;;;;;;5087381;28;20083;-67
2022/05/18 04:42:26;;;;;;;;;;;;;;;;;;5082799;28;20415;-67
2022/05/18 04:44:52;;;;;;;17.45;9.40;;;;;;;;;;5082595;28;19928;-67
2022/05/18 04:47:22;;;;;;;18.10;9.82;;;;;;;;;;5065437;28;20040;-67
2022/05/18 04:49:52;;;;;;;15.15;9.32;;;;;;;;;;5072731;28;20099;-66
2022/05/18 04:52:21;;;;;;;18.48;9.68;;;;;;;;;;5087827;28;20067;-67
2022/05/18 04:54:48;;;;;;;17.30;9.52;;;;;;;;;;5087622;28;20159;-67
2022/05/18 04:57:14;;;;;;;18.33;9.48;;;;;;;;;;5081938;28;20162;-67
2022/05/18 04:59:40;;;;;;;18.15;9.27;;;;;;;;;;5064607;28;20476;-67
2022/05/18 05:02:07;;;;;;;16.55;9.18;;;;;;;;;;5078347;28;20182;-67
2022/05/18 05:04:33;;;;;;;16.05;9.25;;;;;;;;;;5069996;28;20505;-66
2022/05/18 05:06:59;;;;;;;18.40;9.80;;;;;;;;;;5068697;28;20040;-66
2022/05/18 05:09:26;;;;;;;17.25;9.52;;;;;;;;;;5035024;28;20457;-66
2022/05/18 05:11:52;;;;;;;19.55;9.65;;;;;;;;;;5064223;28;20058;-66
2022/05/18 05:14:19;;;;;;;18.77;9.88;;;;;;;;;;5085041;28;20043;-67
2022/05/18 05:16:45;;;;;;;22.45;10.52;;;;;;;;;;5087523;28;20188;-67
2022/05/18 05:19:11;;;;;;;19.33;9.48;;;;;;;;;;5077033;28;20071;-67
2022/05/18 05:21:42;;;;;;;19.38;10.75;;;;;;;;;;5081800;28;20090;-66
2022/05/18 05:24:09;;;;;;;17.80;10.98;;;;;;;;;;5047601;28;20448;-66
2022/05/18 05:26:35;;;;;;;19.00;10.15;;;;;;;;;;5028337;28;20377;-66
2022/05/18 05:29:01;;;;;;;;;;;;;;;;;;5046921;28;20119;-69
2022/05/18 05:31:27;;;;;;;17.60;10.73;;;;;;;;;;5056471;28;20385;-66
2022/05/18 05:33:54;;;;;;;17.35;9.85;;;;;;;;;;5077513;28;20052;-66
2022/05/18 05:36:20;;;;;;;18.70;10.38;;;;;;;;;;5080441;28;20086;-67
2022/05/18 05:38:46;;;;;;;61.58;37.63;;;;;;;;;;5070106;28;20058;-66
2022/05/18 05:41:12;;;;;;;22.63;11.63;;;;;;;;;;5086498;28;20161;-67
2022/05/18 05:43:40;;;;;;;21.50;10.57;;;;;;;;;;5082583;28;20428;-67
2022/05/18 05:46:09;;;;;;;20.33;10.68;;;;;;;;;;5084986;28;20371;-67
2022/05/18 05:48:35;;;;;;;18.40;10.57;;;;;;;;;;5049166;28;20049;-67
2022/05/18 05:51:01;;;;;;;;;;;;;;;;;;5054559;28;20093;-66
2022/05/18 05:53:27;;;;;;;19.90;10.65;;;;;;;;;;5061814;28;20348;-66
2022/05/18 05:55:54;;;;;;;20.08;11.00;;;;;;;;;;5085926;28;20078;-68
2022/05/18 05:58:20;;;;;;;17.48;10.52;;;;;;;;;;5082665;28;20047;-65
2022/05/18 06:00:46;;;;;;;22.30;12.60;;;;;;;;;;5051781;28;20056;-67
2022/05/18 06:03:14;;;;;;;18.95;11.38;;;;;;;;;;5082349;28;20088;-66
2022/05/18 06:05:40;;;;;;;21.33;11.60;;;;;;;;;;5083342;28;20036;-67
2022/05/18 06:08:06;;;;;;;20.63;10.52;;;;;;;;;;5084555;28;20048;-66
2022/05/18 06:10:34;;;;;;;19.58;10.68;;;;;;;;;;5074089;28;20075;-65
2022/05/18 06:13:04;;;;;;;21.92;10.98;;;;;;;;;;5090171;28;20041;-66
2022/05/18 06:15:30;;;;;;;20.58;11.70;;;;;;;;;;5071879;28;20048;-66
2022/05/18 06:17:57;;;;;;;19.48;11.02;;;;;;;;;;5070232;28;20044;-66
2022/05/18 06:20:22;;;;;;;;;;;;;;;;;;5060157;28;20041;-66
2022/05/18 06:22:49;;;;;;;20.40;12.13;;;;;;;;;;5070800;28;20301;-66
2022/05/18 06:25:15;;;;;;;22.48;11.63;;;;;;;;;;5065322;28;20060;-66
2022/05/18 06:27:42;;;;;;;22.70;12.25;;;;;;;;;;5063883;28;20054;-66
2022/05/18 06:30:09;;;;;;;20.73;11.93;;;;;;;;;;5080851;28;20426;-66
2022/05/18 06:32:35;;;;;;;19.73;11.60;;;;;;;;;;5087920;28;20201;-66
2022/05/18 06:35:01;;;;;;;;;;;;;;;;;;5090384;28;20216;-66
2022/05/18 06:37:27;;;;;;;22.38;12.50;;;;;;;;;;5065546;28;20016;-65
2022/05/18 06:39:53;;;;;;;23.15;13.23;;;;;;;;;;5052129;28;20044;-66
2022/05/18 06:42:19;;;;;;;27.05;12.95;;;;;;;;;;5067474;28;20044;-66
2022/05/18 06:44:45;;;;;;;22.83;13.27;;;;;;;;;;5068907;28;20075;-67
2022/05/18 06:47:12;;;;;;;21.92;12.25;;;;;;;;;;5071135;28;20049;-67
2022/05/18 06:49:38;;;;;;;21.33;12.40;;;;;;;;;;5057726;28;20044;-66
2022/05/18 06:52:04;;;;;;;23.05;13.23;;;;;;;;;;5080605;28;20043;-66
2022/05/18 06:54:30;;;;;;;22.08;12.40;;;;;;;;;;5015573;28;20075;-68
2022/05/18 06:56:56;;;;;;;;;;;;;;;;;;5078898;28;20086;-69
2022/05/18 06:59:22;;;;;;;21.02;13.02;;;;;;;;;;5078040;28;20772;-67
2022/05/18 07:01:48;;;;;;;;;;;;;;;;;;5078231;28;20040;-68
2022/05/18 07:04:14;;;;;;;20.38;11.77;;;;;;;;;;5076039;28;19925;-67
2022/05/18 07:06:40;;;;;;;;;;;;;;;;;;5062351;28;20045;-67
2022/05/18 07:09:08;;;;;;;25.80;12.73;;;;;;;;;;5050042;28;19921;-67
2022/05/18 07:11:37;;;;;;;24.83;13.90;;;;;;;;;;5079021;28;20372;-67
2022/05/18 07:14:06;;;;;;;27.45;13.32;;;;;;;;;;5054735;28;20183;-67
2022/05/18 07:16:33;;;;;;;48.80;15.20;;;;;;;;;;5069088;28;20437;-67
2022/05/18 07:19:00;;;;;;;23.98;13.00;;;;;;;;;;5069054;28;20135;-67
2022/05/18 07:21:26;;;;;;;22.33;12.68;;;;;;;;;;5043177;28;20437;-67
2022/05/18 07:23:56;;;;;;;19.58;12.18;;;;;;;;;;5031866;28;20154;-68
2022/05/18 07:26:22;;;;;;;24.00;13.40;;;;;;;;;;5067205;28;20045;-67
2022/05/18 07:28:49;;;;;;;22.15;12.02;;;;;;;;;;5050479;28;20109;-68
2022/05/18 07:31:15;;;;;;;24.98;12.63;;;;;;;;;;5058652;28;20528;-67
2022/05/18 07:33:41;;;;;;;22.27;11.93;;;;;;;;;;5063179;28;20044;-68
2022/05/18 07:36:08;;;;;;;22.40;11.35;;;;;;;;;;5050664;28;20467;-67
2022/05/18 07:38:33;;;;;;;;;;;;;;;;;;5057859;28;20492;-68
2022/05/18 07:41:00;;;;;;;20.42;13.05;;;;;;;;;;5049673;28;19925;-68
2022/05/18 07:43:26;;;;;;;;;;;;;;;;;;5052147;28;20432;-68
2022/05/18 07:45:53;;;;;;;21.10;12.00;;;;;;;;;;5053792;28;19947;-67
2022/05/18 07:48:19;;;;;;;22.27;10.88;;;;;;;;;;5048604;28;20404;-68
2022/05/18 07:50:46;;;;;;;25.92;11.15;;;;;;;;;;5062828;28;20341;-70
2022/05/18 07:53:12;;;;;;;20.63;10.55;;;;;;;;;;5052445;28;20044;-68
2022/05/18 07:55:38;;;;;;;20.58;10.80;;;;;;;;;;5048270;28;20442;-69
2022/05/18 07:58:05;;;;;;;22.13;10.60;;;;;;;;;;5034239;28;20053;-69
2022/05/18 08:00:32;;;;;;;26.88;11.43;;;;;;;;;;5047817;28;20126;-69
2022/05/18 08:02:58;;;;;;;23.67;11.07;;;;;;;;;;5049158;28;20166;-68
2022/05/18 08:05:24;;;;;;;;;;;;;;;;;;5048521;28;20467;-67
2022/05/18 08:07:50;;;;;;;17.55;9.63;;;;;;;;;;5048862;28;20020;-68
2022/05/18 08:15:48;;;;;;;17.15;9.73;;;;;;;;;;5047312;28;20049;-68
2022/05/18 08:18:15;;;;;;;17.38;9.95;;;;;;;;;;5066973;28;20056;-70
2022/05/18 08:20:42;;;;;;;28.58;15.55;;;;;;;;;;5067295;28;20504;-71
2022/05/18 08:23:08;;;;;;;16.25;9.55;;;;;;;;;;5048175;28;20063;-70
2022/05/18 08:25:35;;;;;;;18.23;9.00;;;;;;;;;;5049744;28;20092;-72
2022/05/18 08:28:01;;;;;;;16.25;7.45;;;;;;;;;;5057711;28;20464;-71
2022/05/18 08:30:30;;;;;;;14.63;7.70;;;;;;;;;;5067301;28;20117;-70
2022/05/18 08:32:58;;;;;;;15.85;6.32;;;;;;;;;;5066969;28;20044;-71
2022/05/18 08:35:24;;;;;;;12.80;6.00;;;;;;;;;;5053398;28;20061;-71
2022/05/18 08:37:50;;;;;;;;;;;;;;;;;;5048451;28;20052;-70
2022/05/18 08:40:29;;;;;;;12.25;5.13;;;;;;;;;;5050378;28;20061;-70
2022/05/18 08:43:03;;;;;;;16.42;4.95;;;;;;;;;;5065460;28;20052;-70
2022/05/18 08:45:31;;;;;;;13.70;4.95;;;;;;;;;;5057502;28;20041;-71
2022/05/18 08:48:24;;;;;;;15.32;5.60;;;;;;;;;;5047622;28;20053;-71
2022/05/18 08:50:52;;;;;;;17.20;5.70;;;;;;;;;;5047014;28;20067;-71
2022/05/18 08:53:21;;;;;;;27.00;10.57;;;;;;;;;;5047211;28;20076;-71
2022/05/18 08:55:58;;;;;;;16.50;6.97;;;;;;;;;;5055933;28;20052;-71
2022/05/18 08:58:24;;;;;;;18.55;5.95;;;;;;;;;;5033086;28;20484;-70
2022/05/18 09:00:50;;;;;;;;;;;;;;;;;;5061750;28;20055;-71
2022/05/18 09:03:25;;;;;;;13.43;5.22;;;;;;;;;;5060619;28;19921;-69
2022/05/18 09:06:10;;;;;;;18.55;5.43;;;;;;;;;;5044539;28;20116;-71
2022/05/18 09:08:39;;;;;;;13.70;5.53;;;;;;;;;;5046833;28;20190;-71
2022/05/18 09:11:07;;;;;;;17.58;7.18;;;;;;;;;;5054039;28;20303;-73
2022/05/18 09:13:34;;;;;;;14.25;6.40;;;;;;;;;;5059341;28;20143;-71
2022/05/18 09:16:00;;;;;;;16.95;7.03;;;;;;;;;;5048250;28;20147;-73
2022/05/18 09:18:26;;;;;;;;;;;;;;;;;;5047450;28;20120;-71
2022/05/18 09:21:04;;;;;;;18.90;6.28;;;;;;;;;;5062823;28;19928;-70
2022/05/18 09:24:00;;;;;;;13.57;5.22;;;;;;;;;;5046462;28;20195;-75
2022/05/18 09:26:35;;;;;;;16.45;6.25;;;;;;;;;;5025433;28;20072;-71
2022/05/18 09:29:07;;;;;;;18.73;9.30;;;;;;;;;;5049889;28;20391;-72
2022/05/18 09:31:45;;;;;;;14.10;6.47;;;;;;;;;;5062435;28;20041;-73
2022/05/18 09:34:29;;;;;;;14.00;6.75;;;;;;;;;;5054005;28;20464;-74
2022/05/18 09:37:21;;;;;;;14.90;7.47;;;;;;;;;;5067053;28;20052;-74
2022/05/18 09:39:53;;;;;;;14.25;6.70;;;;;;;;;;5049754;28;20495;-75
2022/05/18 09:42:20;;;;;;;15.98;7.40;;;;;;;;;;5058799;28;20106;-72
2022/05/18 09:44:59;;;;;;;15.63;7.72;;;;;;;;;;5040880;28;20334;-72
2022/05/18 09:47:26;;;;;;;17.88;8.32;;;;;;;;;;5065538;28;20127;-71
2022/05/18 09:49:54;;;;;;;14.88;7.82;;;;;;;;;;5070470;28;20044;-68
2022/05/18 09:52:31;;;;;;;19.23;8.82;;;;;;;;;;5059138;28;20091;-67
2022/05/18 09:54:58;;;;;;;23.58;9.20;;;;;;;;;;5055161;28;20495;-72
2022/05/18 09:57:32;;;;;;;18.27;8.55;;;;;;;;;;5058961;28;20048;-70
2022/05/18 10:00:01;;;;;;;18.63;7.90;;;;;;;;;;5074571;28;20056;-68
2022/05/18 10:08:00;;;;;;;16.08;7.65;;;;;;;;;;5088235;28;20044;-66
2022/05/18 10:10:29;;;;;;;16.27;7.57;;;;;;;;;;5082105;28;20055;-68
2022/05/18 10:12:57;;;;;;;14.77;7.93;;;;;;;;;;5048629;28;20048;-67
2022/05/18 10:15:24;;;;;;;17.58;7.35;;;;;;;;;;5076431;28;20108;-65
2022/05/18 10:17:51;;;;;;;18.77;7.65;;;;;;;;;;5082188;28;20459;-67
2022/05/18 10:20:36;;;;;;;15.25;7.32;;;;;;;;;;5073244;28;20203;-66
2022/05/18 10:23:03;;;;;;;16.50;7.72;;;;;;;;;;5082617;28;20044;-66
2022/05/18 10:25:35;;;;;;;20.98;8.32;;;;;;;;;;5077193;28;20037;-68
2022/05/18 10:28:10;;;;;;;19.95;8.15;;;;;;;;;;5076712;28;20461;-68
2022/05/18 10:30:37;;;;;;;16.45;7.88;;;;;;;;;;5055236;28;20142;-67
2022/05/18 10:33:19;;;;;;;17.45;8.10;;;;;;;;;;5084634;28;20127;-66
2022/05/18 10:35:55;;;;;;;16.45;6.97;;;;;;;;;;5076913;28;20113;-68
2022/05/18 10:38:25;;;;;;;16.15;7.53;;;;;;;;;;5087013;28;20420;-67
2022/05/18 10:41:04;;;;;;;17.17;8.00;;;;;;;;;;5056679;28;20056;-68
2022/05/18 10:43:53;;;;;;;19.25;9.10;;;;;;;;;;5061326;28;20040;-69
2022/05/18 10:46:27;;;;;;;28.90;14.18;;;;;;;;;;5041139;28;20173;-63
2022/05/18 10:48:58;;;;;;;29.58;12.40;;;;;;;;;;5064341;28;20049;-68
2022/05/18 10:51:32;;;;;;;27.70;11.70;;;;;;;;;;5077091;28;20044;-71
2022/05/18 10:54:21;;;;;;;20.73;12.20;;;;;;;;;;5054496;28;20048;-66
2022/05/18 10:56:48;;;;;;;22.10;11.80;;;;;;;;;;5053116;28;20136;-67
2022/05/18 10:59:20;;;;;;;19.55;11.93;;;;;;;;;;5066506;28;20044;-70
2022/05/18 11:01:50;;;;;;;22.77;10.90;;;;;;;;;;5057904;28;20047;-70
2022/05/18 11:04:19;;;;;;;22.83;12.98;;;;;;;;;;5067939;28;20045;-71
2022/05/18 11:06:45;;;;;;;22.23;12.10;;;;;;;;;;5068614;28;20500;-71
2022/05/18 11:09:14;;;;;;;21.17;12.40;;;;;;;;;;5069247;28;20092;-70
2022/05/18 11:12:00;;;;;;;18.98;11.57;;;;;;;;;;5050742;28;20418;-71
2022/05/18 11:14:46;;;;;;;22.20;12.45;;;;;;;;;;5067403;28;20055;-70
2022/05/18 11:17:25;;;;;;;21.98;13.55;;;;;;;;;;5058922;28;20076;-70
2022/05/18 11:20:03;;;;;;;23.58;13.38;;;;;;;;;;5057634;28;20352;-72
2022/05/18 11:22:31;;;;;;;23.25;12.73;;;;;;;;;;5067177;28;20053;-71
2022/05/18 11:25:03;;;;;;;23.15;15.05;;;;;;;;;;5049164;28;20074;-70
2022/05/18 11:27:33;;;;;;;23.17;13.80;;;;;;;;;;5048129;28;20074;-69
2022/05/18 11:30:08;;;;;;;20.33;13.05;;;;;;;;;;5063251;28;20095;-70
2022/05/18 11:32:51;;;;;;;24.58;14.43;;;;;;;;;;5047746;28;20130;-71
2022/05/18 11:35:20;;;;;;;29.02;14.63;;;;;;;;;;5061861;28;20048;-71
2022/05/18 11:37:53;;;;;;;24.80;14.95;;;;;;;;;;5061004;28;20079;-71
2022/05/18 11:40:22;;;;;;;24.02;14.07;;;;;;;;;;5047266;28;20068;-70
2022/05/18 11:42:48;;;;;;;24.63;15.85;;;;;;;;;;5069679;28;20048;-70
2022/05/18 11:45:33;;;;;;;31.98;14.40;;;;;;;;;;5069194;28;20040;-71
2022/05/18 11:48:18;;;;;;;30.67;14.32;;;;;;;;;;5068472;28;20079;-70
2022/05/18 11:50:52;;;;;;;23.75;13.70;;;;;;;;;;5070777;28;20048;-70
2022/05/18 11:53:51;;;;;;;23.27;15.35;;;;;;;;;;5071886;28;20086;-71
2022/05/18 11:56:33;;;;;;;20.27;12.57;;;;;;;;;;5000913;28;20052;-73
2022/05/18 12:02:01;;;;;;;22.52;14.63;;;;;;;;;;5049849;28;20152;-70
2022/05/18 12:04:27;;;;;;;27.40;16.13;;;;;;;;;;5048261;28;20396;-67
2022/05/18 12:07:01;;;;;;;26.13;15.32;;;;;;;;;;5067110;28;20078;-68
2022/05/18 12:09:42;;;;;;;23.67;14.13;;;;;;;;;;5058625;28;20052;-70
2022/05/18 12:12:08;;;;;;;25.80;14.05;;;;;;;;;;5069463;28;20051;-68
2022/05/18 12:14:37;;;;;;;23.63;12.77;;;;;;;;;;5068251;28;20056;-70
2022/05/18 12:17:06;;;;;;;20.92;12.45;;;;;;;;;;5067901;28;20044;-70
2022/05/18 12:19:32;;;;;;;21.77;12.73;;;;;;;;;;5050682;28;20045;-69
2022/05/18 12:22:00;;;;;;;25.27;14.40;;;;;;;;;;5066386;28;20508;-69
2022/05/18 12:24:28;;;;;;;25.60;13.88;;;;;;;;;;5059340;28;20109;-70
2022/05/18 12:26:55;;;;;;;27.00;14.35;;;;;;;;;;5031237;28;20045;-67
2022/05/18 12:29:22;;;;;;;24.20;14.10;;;;;;;;;;5065089;28;20217;-70
2022/05/18 12:31:49;;;;;;;25.70;15.77;;;;;;;;;;5058109;28;20041;-70
2022/05/18 12:34:15;;;;;;;22.08;13.27;;;;;;;;;;5075553;28;20047;-69
2022/05/18 12:37:04;;;;;;;25.13;13.90;;;;;;;;;;5082553;28;20042;-71
2022/05/18 12:39:33;;;;;;;23.25;13.35;;;;;;;;;;5040288;28;20052;-70
2022/05/18 12:42:00;;;;;;;22.20;12.98;;;;;;;;;;5071740;28;20384;-71
2022/05/18 12:44:36;;;;;;;22.75;12.52;;;;;;;;;;5063447;28;20066;-67
2022/05/18 12:47:04;;;;;;;20.60;11.63;;;;;;;;;;5064183;28;20048;-69
2022/05/18 12:49:41;;;;;;;23.98;11.48;;;;;;;;;;5065360;28;20076;-68
2022/05/18 12:52:18;;;;;;;20.33;10.77;;;;;;;;;;5057447;28;20058;-70
2022/05/18 12:54:48;;;;;;;24.80;11.05;;;;;;;;;;5060369;28;20539;-68
2022/05/18 12:57:37;;;;;;;17.85;9.18;;;;;;;;;;5060701;28;20451;-70
2022/05/18 13:00:12;;;;;;;22.95;12.80;;;;;;;;;;5048079;28;20044;-68
2022/05/18 13:02:42;;;;;;;16.40;10.57;;;;;;;;;;5062290;28;20063;-71
2022/05/18 13:05:26;;;;;;;19.70;9.52;;;;;;;;;;5048778;28;20399;-70
2022/05/18 13:08:01;;;;;;;23.13;9.95;;;;;;;;;;5062116;28;20048;-71
2022/05/18 13:10:34;;;;;;;20.23;10.70;;;;;;;;;;5062600;28;20341;-69
2022/05/18 13:13:08;;;;;;;20.52;11.00;;;;;;;;;;5079158;28;20062;-70
2022/05/18 13:15:53;;;;;;;16.95;10.45;;;;;;;;;;5078577;28;20036;-70
2022/05/18 13:18:20;;;;;;;30.92;19.15;;;;;;;;;;5073470;28;20051;-71
2022/05/18 13:20:51;;;;;;;38.60;22.35;;;;;;;;;;5078555;28;20070;-69
2022/05/18 13:23:24;;;;;;;38.53;23.95;;;;;;;;;;5082298;28;20062;-68
2022/05/18 13:25:59;;;;;;;44.10;24.65;;;;;;;;;;5067755;28;20067;-71
2022/05/18 13:28:27;;;;;;;38.37;23.13;;;;;;;;;;5064764;28;20083;-70
2022/05/18 13:30:54;;;;;;;35.53;23.67;;;;;;;;;;5057720;28;20063;-69
2022/05/18 13:33:21;;;;;;;40.55;24.50;;;;;;;;;;5077088;28;20082;-69
2022/05/18 13:35:48;;;;;;;40.03;22.95;;;;;;;;;;5067559;28;20075;-69
2022/05/18 13:38:17;;;;;;;43.35;24.05;;;;;;;;;;5058411;28;20044;-68
2022/05/18 13:40:47;;;;;;;39.42;23.55;;;;;;;;;;5066295;28;20048;-69
2022/05/18 13:43:15;;;;;;;40.25;24.25;;;;;;;;;;5064764;28;20132;-69
2022/05/18 13:45:44;;;;;;;47.15;24.35;;;;;;;;;;5066355;28;20341;-69
2022/05/18 13:48:11;;;;;;;42.45;24.50;;;;;;;;;;5068002;28;20471;-73
2022/05/18 13:50:40;;;;;;;44.20;25.90;;;;;;;;;;5074277;28;20158;-67
2022/05/18 13:53:14;;;;;;;41.00;25.30;;;;;;;;;;5050665;28;20044;-69
2022/05/18 13:55:42;;;;;;;39.08;23.92;;;;;;;;;;5057064;28;20100;-71
2022/05/18 13:58:09;;;;;;;38.80;25.17;;;;;;;;;;5077348;28;20040;-68
2022/05/18 14:00:41;;;;;;;38.70;24.30;;;;;;;;;;5069039;28;21564;-69
2022/05/18 14:03:07;;;;;;;42.50;24.75;;;;;;;;;;5076213;28;20326;-68
2022/05/18 14:05:36;;;;;;;50.28;26.55;;;;;;;;;;5079197;28;20131;-69
2022/05/18 14:08:13;;;;;;;43.95;25.00;;;;;;;;;;5072814;28;20041;-67
2022/05/18 14:10:39;;;;;;;49.55;27.65;;;;;;;;;;5059687;28;20075;-68
2022/05/18 14:13:06;;;;;;;38.85;24.58;;;;;;;;;;5065709;28;20044;-69
2022/05/18 14:15:35;;;;;;;48.03;26.20;;;;;;;;;;5065703;28;20107;-70
2022/05/18 14:18:02;;;;;;;42.30;23.73;;;;;;;;;;5066206;28;20055;-68
2022/05/18 14:20:31;;;;;;;47.63;23.50;;;;;;;;;;5066592;28;20118;-68
2022/05/18 14:22:58;;;;;;;39.08;23.90;;;;;;;;;;5058992;28;20122;-68
2022/05/18 14:25:28;;;;;;;37.05;22.50;;;;;;;;;;5064280;28;20130;-69
2022/05/18 14:27:56;;;;;;;41.55;23.75;;;;;;;;;;5050417;28;20122;-70
2022/05/18 14:30:25;;;;;;;39.83;23.25;;;;;;;;;;5052023;28;20103;-66
2022/05/18 14:33:12;;;;;;;37.80;21.13;;;;;;;;;;5050191;28;20052;-68
2022/05/18 14:35:40;;;;;;;37.42;21.35;;;;;;;;;;5071520;28;20509;-68
2022/05/18 14:38:08;;;;;;;34.80;21.23;;;;;;;;;;5075585;28;20047;-73
2022/05/18 14:40:39;;;;;;;38.85;20.48;;;;;;;;;;5067492;28;20033;-68
2022/05/18 14:43:06;;;;;;;43.45;22.27;;;;;;;;;;5064200;28;20424;-67
2022/05/18 14:45:41;;;;;;;34.88;22.30;;;;;;;;;;5068211;28;20447;-71
2022/05/18 14:48:07;;;;;;;39.70;21.02;;;;;;;;;;5072054;28;20185;-68
2022/05/18 14:50:43;;;;;;;37.45;22.35;;;;;;;;;;5083303;28;20055;-68
2022/05/18 14:53:14;;;;;;;40.45;22.60;;;;;;;;;;5060248;28;20040;-69
2022/05/18 14:55:40;;;;;;;37.80;21.33;;;;;;;;;;5084414;28;20115;-67
2022/05/18 14:58:07;;;;;;;37.97;22.08;;;;;;;;;;5053136;28;20085;-69
2022/05/18 15:00:35;;;;;;;39.05;22.98;;;;;;;;;;5055681;28;20068;-69
2022/05/18 15:03:07;;;;;;;40.17;21.55;;;;;;;;;;5076398;28;20044;-68
2022/05/18 15:05:34;;;;;;;34.35;23.38;;;;;;;;;;5089494;28;20430;-68